Time;durP1;ratioP1;P1;durP2;ratioP2;P2;SDS_P1;SDS_P2;PMS_P1;PMS_P2;Temp;Humidity;BMP_temperature;BMP_pressure;BME280_temperature;BME280_humidity;BME280_pressure;Samples;Min_cycle;Max_cycle;Signal;HPM_P1;HPM_P2
2022/05/10 00:01:14;;;;;;;5.90;5.50;;;;;;;;;;4904003;29;20171;-80
2022/05/10 00:03:42;;;;;;;7.57;5.10;;;;;;;;;;4906639;29;20052;-79
2022/05/10 00:06:10;;;;;;;5.38;4.97;;;;;;;;;;4911458;29;20139;-80
2022/05/10 00:08:44;;;;;;;5.22;4.93;;;;;;;;;;4902914;29;20060;-80
2022/05/10 00:11:11;;;;;;;6.50;5.68;;;;;;;;;;4907384;29;20036;-80
2022/05/10 00:13:39;;;;;;;6.20;5.70;;;;;;;;;;4908700;29;20064;-80
2022/05/10 00:16:12;;;;;;;6.18;5.57;;;;;;;;;;4891518;29;20074;-80
2022/05/10 00:18:39;;;;;;;7.80;6.35;;;;;;;;;;4917105;29;20072;-80
2022/05/10 00:21:08;;;;;;;6.60;6.10;;;;;;;;;;4909024;29;20044;-80
2022/05/10 00:23:36;;;;;;;6.90;6.40;;;;;;;;;;4922501;29;20040;-79
2022/05/10 00:26:03;;;;;;;6.88;6.28;;;;;;;;;;4920869;29;20177;-80
2022/05/10 00:28:31;;;;;;;6.05;5.50;;;;;;;;;;4897509;29;20074;-80
2022/05/10 00:30:58;;;;;;;6.57;6.00;;;;;;;;;;4920061;29;20098;-79
2022/05/10 00:33:27;;;;;;;5.63;5.18;;;;;;;;;;4918366;29;20044;-80
2022/05/10 00:35:55;;;;;;;5.93;5.50;;;;;;;;;;4912415;29;20449;-79
2022/05/10 00:38:25;;;;;;;5.80;5.40;;;;;;;;;;4914915;29;20079;-80
2022/05/10 00:40:52;;;;;;;6.53;5.90;;;;;;;;;;4901501;29;20046;-80
2022/05/10 00:43:31;;;;;;;6.38;5.88;;;;;;;;;;4894171;29;20052;-79
2022/05/10 00:46:01;;;;;;;5.88;5.38;;;;;;;;;;4920339;29;20064;-79
2022/05/10 00:48:33;;;;;;;8.77;6.10;;;;;;;;;;4921915;29;20043;-80
2022/05/10 00:51:03;;;;;;;5.97;5.57;;;;;;;;;;4918676;29;20083;-80
2022/05/10 00:53:45;;;;;;;6.00;5.50;;;;;;;;;;4914153;29;20040;-79
2022/05/10 00:56:17;;;;;;;6.53;5.85;;;;;;;;;;4914069;29;20055;-80
2022/05/10 00:59:03;;;;;;;5.80;5.30;;;;;;;;;;4911558;29;20128;-80
2022/05/10 01:01:32;;;;;;;6.60;5.47;;;;;;;;;;4912945;29;20061;-80
2022/05/10 01:04:16;;;;;;;6.63;5.97;;;;;;;;;;4914455;29;20154;-80
2022/05/10 01:07:03;;;;;;;6.28;5.78;;;;;;;;;;4927878;29;20044;-79
2022/05/10 01:09:37;;;;;;;7.03;6.50;;;;;;;;;;4900486;29;20107;-80
2022/05/10 01:12:08;;;;;;;7.68;6.95;;;;;;;;;;4904143;29;20066;-79
2022/05/10 01:14:36;;;;;;;;;;;;;;;;;;4917110;29;20096;-79
2022/05/10 01:17:03;;;;;;;7.22;6.53;;;;;;;;;;4918862;29;20119;-80
2022/05/10 01:19:31;;;;;;;7.72;6.78;;;;;;;;;;4918925;29;20159;-80
2022/05/10 01:22:29;;;;;;;7.90;6.97;;;;;;;;;;4913621;29;20047;-80
2022/05/10 01:25:07;;;;;;;7.15;6.38;;;;;;;;;;4854114;29;20124;-80
2022/05/10 01:27:34;;;;;;;7.78;6.85;;;;;;;;;;4917732;29;20190;-80
2022/05/10 01:30:05;;;;;;;7.25;6.70;;;;;;;;;;4918394;29;20058;-80
2022/05/10 01:35:33;;;;;;;7.32;6.72;;;;;;;;;;4888436;29;20481;-81
2022/05/10 01:38:04;;;;;;;6.85;6.32;;;;;;;;;;4912316;29;20040;-80
2022/05/10 01:40:31;;;;;;;6.75;6.15;;;;;;;;;;4914245;29;20056;-80
2022/05/10 01:43:13;;;;;;;7.50;6.80;;;;;;;;;;4918473;29;20056;-79
2022/05/10 01:45:40;;;;;;;;;;;;;;;;;;4920932;29;20083;-80
2022/05/10 01:48:09;;;;;;;6.75;5.93;;;;;;;;;;4939906;29;20515;-80
2022/05/10 01:50:53;;;;;;;6.65;6.07;;;;;;;;;;4913692;29;20583;-79
2022/05/10 01:53:25;;;;;;;7.57;5.93;;;;;;;;;;4916634;29;20425;-80
2022/05/10 01:55:52;;;;;;;;;;;;;;;;;;4916901;29;20099;-80
2022/05/10 01:58:20;;;;;;;8.95;6.50;;;;;;;;;;4901582;29;19931;-80
2022/05/10 02:00:55;;;;;;;6.50;5.90;;;;;;;;;;4917022;29;20048;-80
2022/05/10 02:03:26;;;;;;;6.10;5.40;;;;;;;;;;4916493;29;20056;-79
2022/05/10 02:06:08;;;;;;;6.75;6.15;;;;;;;;;;4902503;29;20056;-80
2022/05/10 02:08:55;;;;;;;6.35;5.85;;;;;;;;;;4897735;29;20462;-79
2022/05/10 02:11:25;;;;;;;5.93;5.43;;;;;;;;;;4902564;29;20044;-79
2022/05/10 02:13:58;;;;;;;6.15;5.65;;;;;;;;;;4916865;29;20095;-79
2022/05/10 02:16:26;;;;;;;5.82;5.35;;;;;;;;;;4920537;29;20044;-79
2022/05/10 02:19:16;;;;;;;5.82;5.25;;;;;;;;;;4920217;29;20044;-80
2022/05/10 02:21:47;;;;;;;5.80;5.30;;;;;;;;;;4922713;29;20060;-79
2022/05/10 02:24:22;;;;;;;5.78;5.38;;;;;;;;;;4921571;29;20111;-79
2022/05/10 02:26:55;;;;;;;6.10;5.60;;;;;;;;;;4917374;29;20063;-79
2022/05/10 02:29:23;;;;;;;5.53;5.03;;;;;;;;;;4902617;29;20056;-79
2022/05/10 02:34:43;;;;;;;5.55;5.15;;;;;;;;;;4926176;29;20135;-80
2022/05/10 02:37:11;;;;;;;5.20;4.80;;;;;;;;;;4906924;29;20477;-79
2022/05/10 02:39:38;;;;;;;5.80;5.30;;;;;;;;;;4915542;29;20536;-79
2022/05/10 02:42:09;;;;;;;5.40;5.00;;;;;;;;;;4911786;29;20090;-80
2022/05/10 02:44:37;;;;;;;6.18;5.78;;;;;;;;;;4898456;29;20473;-80
2022/05/10 02:47:06;;;;;;;6.53;6.03;;;;;;;;;;4907278;29;20052;-79
2022/05/10 02:49:34;;;;;;;5.68;5.28;;;;;;;;;;4892211;29;20048;-80
2022/05/10 02:52:02;;;;;;;5.78;5.20;;;;;;;;;;4894215;29;20092;-80
2022/05/10 02:54:30;;;;;;;5.43;4.93;;;;;;;;;;4876885;29;20497;-79
2022/05/10 02:56:58;;;;;;;5.20;4.80;;;;;;;;;;4901274;29;20044;-79
2022/05/10 02:59:28;;;;;;;5.25;4.85;;;;;;;;;;4901307;29;20072;-79
2022/05/10 03:02:14;;;;;;;5.60;5.15;;;;;;;;;;4906008;29;20076;-80
2022/05/10 03:04:44;;;;;;;5.47;5.07;;;;;;;;;;4892808;29;20040;-79
2022/05/10 03:07:12;;;;;;;5.53;5.07;;;;;;;;;;4908976;29;20044;-78
2022/05/10 03:09:39;;;;;;;5.80;5.40;;;;;;;;;;4919020;29;20048;-79
2022/05/10 03:12:08;;;;;;;7.00;5.88;;;;;;;;;;4923145;29;20496;-79
2022/05/10 03:14:35;;;;;;;5.55;5.05;;;;;;;;;;4917752;29;20131;-79
2022/05/10 03:17:04;;;;;;;5.47;4.97;;;;;;;;;;4919713;29;20051;-79
2022/05/10 03:19:32;;;;;;;6.07;5.38;;;;;;;;;;4918280;29;20036;-79
2022/05/10 03:22:00;;;;;;;6.43;5.93;;;;;;;;;;4920220;29;20082;-79
2022/05/10 03:24:28;;;;;;;6.38;5.82;;;;;;;;;;4900844;29;20076;-79
2022/05/10 03:26:56;;;;;;;6.53;5.40;;;;;;;;;;4930917;29;20177;-79
2022/05/10 03:29:25;;;;;;;6.05;5.63;;;;;;;;;;4931364;29;20043;-79
2022/05/10 03:31:56;;;;;;;5.95;5.47;;;;;;;;;;4909714;29;20040;-79
2022/05/10 03:37:10;;;;;;;5.55;5.15;;;;;;;;;;4916085;29;20052;-79
2022/05/10 03:39:37;;;;;;;5.15;4.85;;;;;;;;;;4915869;29;20054;-79
2022/05/10 03:42:05;;;;;;;5.18;4.88;;;;;;;;;;4900216;29;20053;-79
2022/05/10 03:44:33;;;;;;;5.75;5.30;;;;;;;;;;4908317;23;20075;-77
2022/05/10 03:47:04;;;;;;;6.90;6.35;;;;;;;;;;4879434;29;20128;-77
2022/05/10 03:49:31;;;;;;;7.72;6.70;;;;;;;;;;4904496;29;20419;-78
2022/05/10 03:52:00;;;;;;;8.07;7.28;;;;;;;;;;4880003;29;20489;-78
2022/05/10 03:54:28;;;;;;;7.07;6.40;;;;;;;;;;4892667;29;20704;-78
2022/05/10 03:56:55;;;;;;;7.63;6.85;;;;;;;;;;4891099;29;20048;-78
2022/05/10 03:59:23;;;;;;;11.52;7.22;;;;;;;;;;4908885;29;20477;-77
2022/05/10 04:01:50;;;;;;;10.07;7.80;;;;;;;;;;4890633;29;20048;-78
2022/05/10 04:04:18;;;;;;;9.32;8.40;;;;;;;;;;4879226;29;20059;-78
2022/05/10 04:06:45;;;;;;;9.25;8.27;;;;;;;;;;4915333;29;20418;-78
2022/05/10 04:09:14;;;;;;;19.52;8.60;;;;;;;;;;4898014;29;20064;-78
2022/05/10 04:11:41;;;;;;;10.30;8.05;;;;;;;;;;4915489;29;20506;-78
2022/05/10 04:14:09;;;;;;;12.77;8.90;;;;;;;;;;4915254;29;20122;-77
2022/05/10 04:16:36;;;;;;;21.02;9.45;;;;;;;;;;4915036;29;20454;-78
2022/05/10 04:19:03;;;;;;;10.50;8.35;;;;;;;;;;4902846;29;20574;-78
2022/05/10 04:21:31;;;;;;;11.25;10.15;;;;;;;;;;4914226;29;20052;-79
2022/05/10 04:23:59;;;;;;;9.95;9.10;;;;;;;;;;4895273;29;20048;-75
2022/05/10 04:26:27;;;;;;;9.82;8.90;;;;;;;;;;4909568;29;20510;-77
2022/05/10 04:28:54;;;;;;;8.35;7.68;;;;;;;;;;4873766;29;20614;-79
2022/05/10 04:31:22;;;;;;;9.00;8.30;;;;;;;;;;4893421;29;20045;-77
2022/05/10 04:33:50;;;;;;;16.48;9.57;;;;;;;;;;4914144;29;20040;-78
2022/05/10 04:36:23;;;;;;;9.07;8.18;;;;;;;;;;4896129;29;20046;-77
2022/05/10 04:38:50;;;;;;;12.38;9.27;;;;;;;;;;4915555;29;20455;-78
2022/05/10 04:41:26;;;;;;;12.57;10.02;;;;;;;;;;4882209;29;20062;-77
2022/05/10 04:43:55;;;;;;;10.90;9.77;;;;;;;;;;4914499;29;20050;-77
2022/05/10 04:46:22;;;;;;;9.85;8.95;;;;;;;;;;4906345;29;20044;-77
2022/05/10 04:48:50;;;;;;;10.13;8.48;;;;;;;;;;4897698;29;20078;-78
2022/05/10 04:51:20;;;;;;;10.20;8.63;;;;;;;;;;4889315;29;20058;-87
2022/05/10 04:53:48;;;;;;;11.18;8.85;;;;;;;;;;4909680;29;20104;-78
2022/05/10 04:56:15;;;;;;;9.95;8.90;;;;;;;;;;4895301;29;20052;-78
2022/05/10 04:58:43;;;;;;;9.48;8.57;;;;;;;;;;4896046;29;20040;-77
2022/05/10 05:01:13;;;;;;;12.27;11.27;;;;;;;;;;4909942;29;20127;-79
2022/05/10 05:03:48;;;;;;;10.30;9.38;;;;;;;;;;4882238;29;20044;-77
2022/05/10 05:06:15;;;;;;;11.73;10.63;;;;;;;;;;4872106;29;20056;-78
2022/05/10 05:08:45;;;;;;;11.05;10.00;;;;;;;;;;4891046;29;20044;-84
2022/05/10 05:11:12;;;;;;;16.23;10.07;;;;;;;;;;4905615;29;20104;-79
2022/05/10 05:13:39;;;;;;;12.90;10.20;;;;;;;;;;4893909;29;20048;-78
2022/05/10 05:16:07;;;;;;;9.85;8.90;;;;;;;;;;4878642;29;20119;-78
2022/05/10 05:18:34;;;;;;;11.95;9.93;;;;;;;;;;4893204;29;20053;-79
2022/05/10 05:21:05;;;;;;;11.27;10.35;;;;;;;;;;4888113;29;20500;-78
2022/05/10 05:23:35;;;;;;;10.25;9.30;;;;;;;;;;4895372;29;20533;-78
2022/05/10 05:26:02;;;;;;;12.73;10.48;;;;;;;;;;4891621;29;20080;-78
2022/05/10 05:28:29;;;;;;;9.95;9.05;;;;;;;;;;4905180;29;20042;-79
2022/05/10 05:30:58;;;;;;;12.30;10.30;;;;;;;;;;4911548;29;20119;-78
2022/05/10 05:33:25;;;;;;;12.55;11.05;;;;;;;;;;4891022;29;20055;-77
2022/05/10 05:35:53;;;;;;;9.00;8.23;;;;;;;;;;4894752;29;20044;-78
2022/05/10 05:38:20;;;;;;;12.68;9.43;;;;;;;;;;4908431;29;20044;-78
2022/05/10 05:40:48;;;;;;;11.05;9.90;;;;;;;;;;4894888;29;20112;-78
2022/05/10 05:43:19;;;;;;;11.23;10.15;;;;;;;;;;4897391;29;20040;-78
2022/05/10 05:45:46;;;;;;;9.73;8.95;;;;;;;;;;4914452;29;20138;-78
2022/05/10 05:48:14;;;;;;;11.10;10.10;;;;;;;;;;4903797;29;20415;-78
2022/05/10 05:50:41;;;;;;;10.65;9.63;;;;;;;;;;4923070;29;20047;-78
2022/05/10 05:53:09;;;;;;;9.68;8.98;;;;;;;;;;4901822;29;20874;-78
2022/05/10 05:55:36;;;;;;;10.48;9.52;;;;;;;;;;4901962;29;20045;-78
2022/05/10 05:58:04;;;;;;;10.98;9.95;;;;;;;;;;4908954;29;20068;-79
2022/05/10 06:00:31;;;;;;;11.10;10.18;;;;;;;;;;4907067;29;20565;-78
2022/05/10 06:03:00;;;;;;;11.90;10.80;;;;;;;;;;4925076;29;20058;-78
2022/05/10 06:05:27;;;;;;;10.25;9.43;;;;;;;;;;4903678;29;20044;-79
2022/05/10 06:07:55;;;;;;;12.63;11.52;;;;;;;;;;4921397;29;20040;-78
2022/05/10 06:10:22;;;;;;;10.65;9.65;;;;;;;;;;4919803;29;20048;-79
2022/05/10 06:12:50;;;;;;;11.05;10.15;;;;;;;;;;4895760;29;20048;-78
2022/05/10 06:15:18;;;;;;;9.93;9.13;;;;;;;;;;4902279;29;20043;-79
2022/05/10 06:17:50;;;;;;;11.00;10.10;;;;;;;;;;4914847;29;20134;-78
2022/05/10 06:20:20;;;;;;;10.65;9.55;;;;;;;;;;4878926;29;20798;-79
2022/05/10 06:22:48;;;;;;;9.95;8.93;;;;;;;;;;4919088;29;20522;-79
2022/05/10 06:25:19;;;;;;;9.35;8.57;;;;;;;;;;4912493;29;20044;-83
2022/05/10 06:27:48;;;;;;;9.90;9.00;;;;;;;;;;4901827;29;20040;-79
2022/05/10 06:30:15;;;;;;;10.13;9.20;;;;;;;;;;4900711;29;20040;-78
2022/05/10 06:32:43;;;;;;;8.80;8.15;;;;;;;;;;4890067;29;20411;-80
2022/05/10 06:35:10;;;;;;;9.07;8.38;;;;;;;;;;4895477;29;20127;-79
2022/05/10 06:40:27;;;;;;;8.38;7.78;;;;;;;;;;4917227;29;20051;-78
2022/05/10 06:42:59;;;;;;;9.15;8.35;;;;;;;;;;4915922;29;20048;-79
2022/05/10 06:45:27;;;;;;;;;;;;;;;;;;4906412;29;20197;-79
2022/05/10 06:47:55;;;;;;;9.25;8.55;;;;;;;;;;4932453;29;19927;-79
2022/05/10 06:50:23;;;;;;;9.15;8.25;;;;;;;;;;4910389;29;20131;-79
2022/05/10 06:52:52;;;;;;;7.68;7.18;;;;;;;;;;4931395;29;20039;-79
2022/05/10 06:55:19;;;;;;;8.80;8.10;;;;;;;;;;4898734;29;20486;-79
2022/05/10 06:57:47;;;;;;;9.40;8.70;;;;;;;;;;4935535;28;20054;-79
2022/05/10 07:00:14;;;;;;;9.00;8.20;;;;;;;;;;4913390;29;20135;-79
2022/05/10 07:02:42;;;;;;;9.15;8.35;;;;;;;;;;4932617;29;20039;-80
2022/05/10 07:05:10;;;;;;;8.98;8.32;;;;;;;;;;4939030;29;20047;-77
2022/05/10 07:07:38;;;;;;;7.97;7.38;;;;;;;;;;4934989;29;20367;-78
2022/05/10 07:10:10;;;;;;;8.35;7.60;;;;;;;;;;4930368;29;20622;-78
2022/05/10 07:12:39;;;;;;;7.95;7.18;;;;;;;;;;4919031;29;20039;-79
2022/05/10 07:15:08;;;;;;;7.20;6.70;;;;;;;;;;4934174;28;20040;-79
2022/05/10 07:17:39;;;;;;;6.80;6.30;;;;;;;;;;4915663;29;20501;-79
2022/05/10 07:20:08;;;;;;;7.18;6.68;;;;;;;;;;4925837;29;20118;-79
2022/05/10 07:22:36;;;;;;;6.80;6.30;;;;;;;;;;4914295;29;20091;-79
2022/05/10 07:25:06;;;;;;;6.95;6.45;;;;;;;;;;4913812;29;20110;-80
2022/05/10 07:27:34;;;;;;;7.78;6.57;;;;;;;;;;4931018;29;20050;-79
2022/05/10 07:30:02;;;;;;;8.55;6.70;;;;;;;;;;4932028;29;20055;-78
2022/05/10 07:32:29;;;;;;;6.82;6.32;;;;;;;;;;4912650;29;20040;-79
2022/05/10 07:34:58;;;;;;;6.28;5.82;;;;;;;;;;4882526;29;20062;-78
2022/05/10 07:37:25;;;;;;;6.82;6.22;;;;;;;;;;4928416;29;20699;-80
2022/05/10 07:39:52;;;;;;;6.30;5.80;;;;;;;;;;4913376;29;20553;-79
2022/05/10 07:42:20;;;;;;;6.68;5.93;;;;;;;;;;4897447;29;20528;-85
2022/05/10 07:44:51;;;;;;;6.18;5.57;;;;;;;;;;4917683;29;20076;-78
2022/05/10 07:47:20;;;;;;;6.95;6.35;;;;;;;;;;4931400;29;20142;-79
2022/05/10 07:49:47;;;;;;;6.55;6.05;;;;;;;;;;4932725;29;20051;-80
2022/05/10 07:52:15;;;;;;;6.43;5.93;;;;;;;;;;4929506;29;20481;-77
2022/05/10 07:54:42;;;;;;;6.40;5.90;;;;;;;;;;4915819;29;20421;-80
2022/05/10 07:57:09;;;;;;;7.85;5.95;;;;;;;;;;4915629;29;20111;-79
2022/05/10 07:59:37;;;;;;;6.05;5.65;;;;;;;;;;4931770;29;20548;-79
2022/05/10 08:02:06;;;;;;;12.52;6.13;;;;;;;;;;4900855;29;20071;-80
2022/05/10 08:04:34;;;;;;;6.20;5.70;;;;;;;;;;4927905;29;20036;-80
2022/05/10 08:07:03;;;;;;;9.05;6.03;;;;;;;;;;4914698;29;20114;-80
2022/05/10 08:09:31;;;;;;;7.30;5.80;;;;;;;;;;4933026;29;20050;-80
2022/05/10 08:11:59;;;;;;;6.38;5.88;;;;;;;;;;4916610;29;20193;-80
2022/05/10 08:14:26;;;;;;;6.43;5.82;;;;;;;;;;4908647;29;20078;-80
2022/05/10 08:16:55;;;;;;;6.00;5.60;;;;;;;;;;4920621;29;20257;-79
2022/05/10 08:19:22;;;;;;;6.40;5.80;;;;;;;;;;4912888;29;20370;-78
2022/05/10 08:21:52;;;;;;;5.80;5.25;;;;;;;;;;4911051;29;20054;-80
2022/05/10 08:24:20;;;;;;;6.15;5.38;;;;;;;;;;4899697;29;20059;-76
2022/05/10 08:26:47;;;;;;;5.40;5.00;;;;;;;;;;4894075;29;20513;-78
2022/05/10 08:29:14;;;;;;;6.13;5.63;;;;;;;;;;4928553;29;20055;-77
2022/05/10 08:31:42;;;;;;;5.85;5.10;;;;;;;;;;4933877;29;20047;-79
2022/05/10 08:34:10;;;;;;;5.38;4.90;;;;;;;;;;4930297;29;20066;-80
2022/05/10 08:36:37;;;;;;;5.70;5.10;;;;;;;;;;4934351;29;20047;-81
2022/05/10 08:39:05;;;;;;;5.53;4.93;;;;;;;;;;4936314;29;20031;-80
2022/05/10 08:41:35;;;;;;;6.50;4.90;;;;;;;;;;4922774;29;20050;-80
2022/05/10 08:44:05;;;;;;;5.53;4.40;;;;;;;;;;4932840;29;20036;-88
2022/05/10 08:46:41;;;;;;;4.85;4.45;;;;;;;;;;4922894;29;20131;-80
2022/05/10 08:49:29;;;;;;;4.82;4.47;;;;;;;;;;4933922;29;20060;-79
2022/05/10 08:51:56;;;;;;;4.82;4.45;;;;;;;;;;4923506;29;20588;-80
2022/05/10 08:54:25;;;;;;;5.55;4.75;;;;;;;;;;4913999;29;20202;-79
2022/05/10 08:56:54;;;;;;;5.07;4.68;;;;;;;;;;4914318;29;20165;-79
2022/05/10 08:59:31;;;;;;;5.85;4.82;;;;;;;;;;4883921;29;20533;-80
2022/05/10 09:01:58;;;;;;;4.22;3.92;;;;;;;;;;4918236;29;20131;-79
2022/05/10 09:04:34;;;;;;;5.22;4.45;;;;;;;;;;4932606;29;20052;-81
2022/05/10 09:07:20;;;;;;;6.25;4.55;;;;;;;;;;4913081;29;20052;-76
2022/05/10 09:09:55;;;;;;;7.55;4.30;;;;;;;;;;4900555;29;20099;-82
2022/05/10 09:12:24;;;;;;;4.45;3.97;;;;;;;;;;4915626;29;20103;-80
2022/05/10 09:14:51;;;;;;;4.70;4.40;;;;;;;;;;4929531;29;20429;-80
2022/05/10 09:17:19;;;;;;;8.50;4.20;;;;;;;;;;4928131;29;20043;-80
2022/05/10 09:19:47;;;;;;;5.82;4.30;;;;;;;;;;4934479;29;20095;-80
2022/05/10 09:22:41;;;;;;;5.63;4.20;;;;;;;;;;4917584;29;20055;-81
2022/05/10 09:25:34;;;;;;;8.18;4.10;;;;;;;;;;4932378;29;20138;-80
2022/05/10 09:28:07;;;;;;;6.95;4.85;;;;;;;;;;4930574;29;20067;-81
2022/05/10 09:30:35;;;;;;;7.20;4.00;;;;;;;;;;4931960;29;20483;-80
2022/05/10 09:36:06;;;;;;;4.38;3.97;;;;;;;;;;4931937;29;20040;-81
2022/05/10 09:38:44;;;;;;;5.15;4.00;;;;;;;;;;4932877;29;20040;-81
2022/05/10 09:41:11;;;;;;;;;;;;;;;;;;4934281;29;20040;-82
2022/05/10 09:43:38;;;;;;;4.55;4.15;;;;;;;;;;4935582;29;19926;-81
2022/05/10 09:46:06;;;;;;;4.07;3.70;;;;;;;;;;4938572;23;20071;-82
2022/05/10 09:48:34;;;;;;;4.13;3.80;;;;;;;;;;4952176;28;20043;-83
2022/05/10 09:51:33;;;;;;;4.45;3.78;;;;;;;;;;4949931;28;20040;-86
2022/05/10 09:54:42;;;;;;;6.72;4.13;;;;;;;;;;4953264;28;20044;-85
2022/05/10 09:57:46;;;;;;;4.05;3.75;;;;;;;;;;4946829;28;20050;-85
2022/05/10 10:01:10;;;;;;;4.07;3.78;;;;;;;;;;4905377;29;20398;-86
2022/05/10 10:03:42;;;;;;;4.72;3.65;;;;;;;;;;4912529;29;20110;-83
2022/05/10 10:06:14;;;;;;;4.65;3.90;;;;;;;;;;4937248;29;20126;-83
2022/05/10 10:08:47;;;;;;;4.03;3.65;;;;;;;;;;4922194;29;20039;-85
2022/05/10 10:11:24;;;;;;;4.10;3.65;;;;;;;;;;4927333;29;20555;-86
2022/05/10 10:13:54;;;;;;;5.32;3.50;;;;;;;;;;4919871;28;20106;-81
2022/05/10 10:16:31;;;;;;;6.10;3.60;;;;;;;;;;4898769;29;20466;-84
2022/05/10 10:19:01;;;;;;;3.85;3.55;;;;;;;;;;4920227;29;20123;-85
2022/05/10 10:21:34;;;;;;;4.10;3.60;;;;;;;;;;4937885;29;20134;-81
2022/05/10 10:24:02;;;;;;;5.60;3.72;;;;;;;;;;4908392;29;20055;-85
2022/05/10 10:26:33;;;;;;;3.30;3.00;;;;;;;;;;4920993;29;20406;-85
2022/05/10 10:29:06;;;;;;;3.95;3.60;;;;;;;;;;4941274;29;20066;-84
2022/05/10 10:31:37;;;;;;;4.90;3.45;;;;;;;;;;4922708;29;20054;-82
2022/05/10 10:34:25;;;;;;;5.90;3.50;;;;;;;;;;4941071;29;20839;-85
2022/05/10 10:36:56;;;;;;;4.22;3.55;;;;;;;;;;4938599;23;20048;-80
2022/05/10 10:39:37;;;;;;;5.43;3.67;;;;;;;;;;4895034;29;20066;-79
2022/05/10 10:42:26;;;;;;;4.50;3.42;;;;;;;;;;4907802;29;20076;-80
2022/05/10 10:45:00;;;;;;;4.50;3.60;;;;;;;;;;4902722;29;20508;-81
2022/05/10 10:47:38;;;;;;;4.38;3.03;;;;;;;;;;4889546;29;20139;-85
2022/05/10 10:50:12;;;;;;;3.72;3.30;;;;;;;;;;4877392;29;20498;-80
2022/05/10 10:52:40;;;;;;;3.55;3.25;;;;;;;;;;4893221;29;20065;-80
2022/05/10 10:55:08;;;;;;;3.00;2.80;;;;;;;;;;4897462;29;20413;-79
2022/05/10 10:57:52;;;;;;;3.25;3.05;;;;;;;;;;4899320;29;20127;-83
2022/05/10 11:00:21;;;;;;;6.15;3.10;;;;;;;;;;4899933;29;20121;-82
2022/05/10 11:02:49;;;;;;;3.55;3.22;;;;;;;;;;4917053;29;20537;-83
2022/05/10 11:05:20;;;;;;;3.20;2.85;;;;;;;;;;4897687;29;20041;-80
2022/05/10 11:07:48;;;;;;;;;;;;;;;;;;4909075;29;21467;-82
2022/05/10 11:10:23;;;;;;;3.75;2.95;;;;;;;;;;4880040;29;19930;-81
2022/05/10 11:12:52;;;;;;;7.82;3.30;;;;;;;;;;4878429;29;20041;-81
2022/05/10 11:15:44;;;;;;;6.22;2.90;;;;;;;;;;4913922;29;20062;-80
2022/05/10 11:18:13;;;;;;;3.33;2.80;;;;;;;;;;4889845;29;20321;-81
2022/05/10 11:20:44;;;;;;;3.30;3.10;;;;;;;;;;4890578;29;20209;-80
2022/05/10 11:23:14;;;;;;;2.37;2.27;;;;;;;;;;4914079;29;20060;-83
2022/05/10 11:25:42;;;;;;;3.75;3.00;;;;;;;;;;4892254;29;20048;-81
2022/05/10 11:28:28;;;;;;;2.25;2.15;;;;;;;;;;4890430;29;20490;-82
2022/05/10 11:31:10;;;;;;;2.58;2.25;;;;;;;;;;4905752;29;20074;-86
2022/05/10 11:33:47;;;;;;;6.20;2.55;;;;;;;;;;4880162;29;20049;-84
2022/05/10 11:36:14;;;;;;;2.40;2.30;;;;;;;;;;4881765;29;20116;-83
2022/05/10 11:39:01;;;;;;;8.00;2.10;;;;;;;;;;4864388;29;20059;-85
2022/05/10 11:41:37;;;;;;;2.70;2.50;;;;;;;;;;4861444;29;20148;-81
2022/05/10 11:44:08;;;;;;;4.60;2.10;;;;;;;;;;4904145;29;20127;-83
2022/05/10 11:46:49;;;;;;;2.08;1.75;;;;;;;;;;4888387;29;20052;-84
2022/05/10 11:49:26;;;;;;;4.13;1.95;;;;;;;;;;4867109;29;20053;-83
2022/05/10 11:51:53;;;;;;;1.92;1.83;;;;;;;;;;4864047;29;20045;-83
2022/05/10 11:54:40;;;;;;;2.75;1.67;;;;;;;;;;4892392;29;20047;-82
2022/05/10 11:57:09;;;;;;;2.42;1.77;;;;;;;;;;4905794;29;20045;-83
2022/05/10 11:59:39;;;;;;;1.58;1.45;;;;;;;;;;4879501;29;20056;-83
2022/05/10 12:02:07;;;;;;;3.08;1.77;;;;;;;;;;4887174;29;20061;-81
2022/05/10 12:04:37;;;;;;;1.90;1.80;;;;;;;;;;4875463;29;20053;-81
2022/05/10 12:07:20;;;;;;;2.05;1.70;;;;;;;;;;4902410;29;20052;-81
2022/05/10 12:09:59;;;;;;;3.58;1.80;;;;;;;;;;4868366;29;20046;-82
2022/05/10 12:12:33;;;;;;;2.35;1.90;;;;;;;;;;4898194;29;20052;-83
2022/05/10 12:21:21;;;;;;;2.42;1.63;;;;;;;;;;4874261;29;20049;-81
2022/05/10 12:24:02;;;;;;;1.98;1.08;;;;;;;;;;4889525;29;20045;-82
2022/05/10 12:26:45;;;;;;;2.53;1.33;;;;;;;;;;4885215;29;20147;-82
2022/05/10 12:29:31;;;;;;;1.60;1.50;;;;;;;;;;4884206;29;20128;-82
2022/05/10 12:32:05;;;;;;;1.20;1.20;;;;;;;;;;4895409;29;20065;-83
2022/05/10 12:34:38;;;;;;;1.50;1.40;;;;;;;;;;4891268;29;20112;-81
2022/05/10 12:37:26;;;;;;;1.50;1.40;;;;;;;;;;4901392;29;20101;-81
2022/05/10 12:40:11;;;;;;;1.45;1.35;;;;;;;;;;4908185;29;20367;-81
2022/05/10 12:42:54;;;;;;;1.77;1.65;;;;;;;;;;4889663;29;20048;-80
2022/05/10 12:45:32;;;;;;;1.55;1.45;;;;;;;;;;4907680;29;20052;-84
2022/05/10 12:48:39;;;;;;;1.40;1.30;;;;;;;;;;4895902;29;20083;-81
2022/05/10 12:51:26;;;;;;;2.15;1.48;;;;;;;;;;4875069;29;20041;-80
2022/05/10 12:54:05;;;;;;;1.60;1.50;;;;;;;;;;4898745;29;20045;-81
2022/05/10 12:56:36;;;;;;;1.45;1.35;;;;;;;;;;4885114;29;20450;-82
2022/05/10 12:59:08;;;;;;;1.40;1.30;;;;;;;;;;4901847;29;20040;-82
2022/05/10 13:01:36;;;;;;;1.42;1.30;;;;;;;;;;4901326;29;20049;-82
2022/05/10 13:04:12;;;;;;;2.65;1.40;;;;;;;;;;4904945;29;20048;-82
2022/05/10 13:06:49;;;;;;;1.70;1.60;;;;;;;;;;4886413;29;20073;-81
2022/05/10 13:09:19;;;;;;;6.53;1.85;;;;;;;;;;4897387;29;20048;-82
2022/05/10 13:11:47;;;;;;;;;;;;;;;;;;4902082;29;20041;-81
2022/05/10 13:14:15;;;;;;;2.00;1.40;;;;;;;;;;4901344;29;20367;-82
2022/05/10 13:17:01;;;;;;;5.22;1.65;;;;;;;;;;4900675;29;20100;-83
2022/05/10 13:19:29;;;;;;;2.05;1.30;;;;;;;;;;4921257;29;20044;-82
2022/05/10 13:22:06;;;;;;;1.23;1.15;;;;;;;;;;4900962;29;20509;-82
2022/05/10 13:24:34;;;;;;;1.33;1.20;;;;;;;;;;4899019;29;20466;-83
2022/05/10 13:27:02;;;;;;;1.20;1.20;;;;;;;;;;4885318;29;20151;-80
2022/05/10 13:29:36;;;;;;;4.27;1.60;;;;;;;;;;4903549;29;20127;-82
2022/05/10 13:32:03;;;;;;;3.72;1.50;;;;;;;;;;4885233;29;20347;-82
2022/05/10 13:34:31;;;;;;;2.50;1.45;;;;;;;;;;4917752;29;20096;-81
2022/05/10 13:36:59;;;;;;;3.53;1.27;;;;;;;;;;4888949;29;20116;-82
2022/05/10 13:39:33;;;;;;;1.17;1.17;;;;;;;;;;4892597;29;20040;-82
2022/05/10 13:42:02;;;;;;;2.95;1.80;;;;;;;;;;4906926;29;20060;-82
2022/05/10 13:44:33;;;;;;;3.22;1.30;;;;;;;;;;4888936;29;20057;-82
2022/05/10 13:47:02;;;;;;;4.90;1.50;;;;;;;;;;4889315;29;20049;-83
2022/05/10 13:49:59;;;;;;;1.60;1.60;;;;;;;;;;4892439;29;20135;-82
2022/05/10 13:52:40;;;;;;;2.30;1.42;;;;;;;;;;4898515;29;20296;-82
2022/05/10 13:55:07;;;;;;;;;;;;;;;;;;4924733;29;20062;-83
2022/05/10 13:57:35;;;;;;;1.80;1.13;;;;;;;;;;4909496;29;20310;-83
2022/05/10 14:00:18;;;;;;;1.60;1.50;;;;;;;;;;4925427;29;20052;-83
2022/05/10 14:02:45;;;;;;;1.35;1.35;;;;;;;;;;4917007;29;20381;-82
2022/05/10 14:05:16;;;;;;;2.00;1.45;;;;;;;;;;4909388;29;20049;-82
2022/05/10 14:07:47;;;;;;;2.15;1.40;;;;;;;;;;4882482;29;20065;-83
2022/05/10 14:10:17;;;;;;;1.70;1.60;;;;;;;;;;4916376;29;20146;-83
2022/05/10 14:12:57;;;;;;;2.75;1.50;;;;;;;;;;4869609;29;20050;-82
2022/05/10 14:15:30;;;;;;;2.53;2.03;;;;;;;;;;4897088;29;20047;-81
2022/05/10 14:18:06;;;;;;;2.35;1.60;;;;;;;;;;4910895;29;20468;-81
2022/05/10 14:20:35;;;;;;;1.52;1.38;;;;;;;;;;4884232;29;20053;-81
2022/05/10 14:23:04;;;;;;;3.95;1.40;;;;;;;;;;4894862;29;20044;-81
2022/05/10 14:25:35;;;;;;;2.47;1.65;;;;;;;;;;4876319;29;20064;-81
2022/05/10 14:30:39;;;;;;;1.70;1.40;;;;;;;;;;4884395;29;20044;-83
2022/05/10 14:33:20;;;;;;;2.88;1.50;;;;;;;;;;4898749;29;20041;-81
2022/05/10 14:35:47;;;;;;;;;;;;;;;;;;4883608;29;20055;-82
2022/05/10 14:38:24;;;;;;;1.30;1.20;;;;;;;;;;4904585;29;20010;-82
2022/05/10 14:40:53;;;;;;;1.48;1.38;;;;;;;;;;4894797;29;20096;-83
2022/05/10 14:43:28;;;;;;;2.22;1.40;;;;;;;;;;4878902;29;20071;-84
2022/05/10 14:45:57;;;;;;;1.92;1.20;;;;;;;;;;4881836;29;20080;-82
2022/05/10 14:48:25;;;;;;;1.27;1.17;;;;;;;;;;4878662;29;20439;-85
2022/05/10 14:50:55;;;;;;;3.60;1.33;;;;;;;;;;4876169;29;20055;-81
2022/05/10 14:53:24;;;;;;;1.65;1.20;;;;;;;;;;4907507;29;20048;-82
2022/05/10 14:56:01;;;;;;;1.00;1.00;;;;;;;;;;4897457;29;20044;-83
2022/05/10 14:58:30;;;;;;;2.00;1.05;;;;;;;;;;4878119;29;20049;-83
2022/05/10 15:01:07;;;;;;;1.27;1.20;;;;;;;;;;4896907;29;20060;-85
2022/05/10 15:03:37;;;;;;;2.25;1.10;;;;;;;;;;4900269;29;20261;-83
2022/05/10 15:06:07;;;;;;;1.33;1.30;;;;;;;;;;4877812;29;20053;-82
2022/05/10 15:08:34;;;;;;;1.70;1.43;;;;;;;;;;4898290;29;20481;-82
2022/05/10 15:11:03;;;;;;;1.42;1.33;;;;;;;;;;4890100;29;20072;-85
2022/05/10 15:13:31;;;;;;;1.55;1.45;;;;;;;;;;4889787;29;20052;-81
2022/05/10 15:16:00;;;;;;;2.63;1.50;;;;;;;;;;4895242;29;20059;-86
2022/05/10 15:21:24;;;;;;;1.27;1.20;;;;;;;;;;4916193;29;20051;-85
2022/05/10 15:23:52;;;;;;;1.50;1.40;;;;;;;;;;4908767;29;20043;-84
2022/05/10 15:26:24;;;;;;;2.38;1.60;;;;;;;;;;4889790;29;20048;-84
2022/05/10 15:28:51;;;;;;;1.77;1.67;;;;;;;;;;4888798;29;20055;-81
2022/05/10 15:31:22;;;;;;;1.70;1.60;;;;;;;;;;4900660;29;20045;-81
2022/05/10 15:33:53;;;;;;;1.80;1.52;;;;;;;;;;4887981;29;20088;-82
2022/05/10 15:36:21;;;;;;;1.70;1.60;;;;;;;;;;4906172;29;20052;-81